Sergey Efimov

Chefscout - Krasnodar
4 Apr 2028
Dienstag
Verarbeitung

Persönlichkeit

Anpassungsfähigkeit (19) Ehrgeiz (9) Kontroverse (5) Loyalität (6) Druck (18) Professionalität (18) Fairness (9) Temperament (9)

Profil

Trainerstil Demokratisch
Lizenz Nationale B
Entschlossenheit 11
Menschenführung 5
Motivation 11
Disziplin 7
Arbeitszufriedenheit
100%
Ermüdung
0%
Rolle Chefscout
Gehalt 41.8K p/W
Vertrag 14.03.2030

Leistung

Verhalten Gut
Trainingseffektivität
46%
Spielerentwicklung
65%
Verletzungsprävention
40%
Taktische Umsetzung
50%

Letzte Ereignisse

Spieler begutachtet 42T her
Nahm an einer Scouting-Besprechung teil 42T her
Spieler begutachtet 49T her
Nahm an einer Scouting-Besprechung teil 49T her
Empfahl ein Transferziel 49T her
Empfahl ein Transferziel 49T her
Nahm an einer Scouting-Besprechung teil 49T her
Legte dem Vorstand ein Dossier vor 56T her

Aktuell beobachtet

73
Spieler Verein Status Fähigkeit Vertrauen Beobachtet Zuletzt beobachtet Letzte Stimme
Mats Egbring Heerenveen Aktiv 103 / 115 40% 4 21.02.2028 -
Matvey Bardachev Zenit Aktiv 106 / 116 40% 1 21.02.2028 -
Makar Vysochenko Spartak Moscow Aktiv 90 / 90 40% 1 21.02.2028 -
Brayan Gil Baltika Verloren 124 / 122 83% 1 14.02.2028 Befürworten
Louka Gautier Chamois Niortais Aktiv 103 / 98 40% 1 14.02.2028 -
Filip Reshane Lillestrom Aktiv 102 / 109 40% 1 14.02.2028 -
Mattia Mannini Juve Stabia Aktiv 121 / 126 40% 2 07.02.2028 -
Bernardo Lima Porto Aktiv 109 / 112 40% 1 07.02.2028 Mehr Infos nötig
Ezra Mayers West Ham United Aktiv 125 / 122 40% 8 25.01.2028 -
Jonny Shore New York City Aktiv 97 / 106 40% 3 25.01.2028 -
Skima Togbe Novi Pazar Aktiv 96 / 96 40% 1 25.01.2028 -
Andreas Nygård Zenit Penza Aktiv 90 / 93 52% 1 / 1m 06.10.2027 -
Juan David Obando Dinamo Barnaul Aktiv 93 / 98 52% 1 / 1m 06.10.2027 -
Dmitry Tsvetkov Dinamo Barnaul Aktiv 72 / 75 42% 1 / 1m 06.10.2027 -
Magomednabi Yagjaev Nart Aktiv 87 / 87 30% 1 / 1m 06.10.2027 -
Rafael Vargas Cortulua Aktiv 88 / 103 40% 6 06.09.2027 -
Diego Cheuquepal Plaza Colonia Aktiv 92 / 118 40% 2 06.09.2027 -
Yannick Geiger BK Hacken Aktiv 106 / 110 40% 2 03.09.2027 -
Brandon Powell Blackburn Rovers Aktiv 117 / 119 40% 1 03.09.2027 -
Teo Rodríguez Pagano San Lorenzo Aktiv 111 / 115 40% 7 02.09.2027 -
Gideon Manaseh Ikorodu City Aktiv 93 / 105 40% 3 02.09.2027 -
Yunus Emre Konak Brentford Aktiv 126 / 129 40% 1 01.09.2027 -
Nicolas Sport Recife Aktiv 99 / 99 40% 1 01.09.2027 -
Agustín Obregón River Plate Aktiv 118 / 128 40% 1 01.09.2027 -
Alexis Pereyra Vélez Aktiv 98 / 94 40% 1 30.08.2027 -
Ayyoub Bouaddi Manchester City Aktiv 142 / 151 40% 2 29.08.2027 -
Stephen Mfuni Manchester City Aktiv 123 / 124 40% 1 28.08.2027 -
Ollie Scarles West Ham United Aktiv 134 / 143 40% 4 27.08.2027 -
Andrey Ivlev Dinamo Moscow Aktiv 117 / 130 40% 2 27.08.2027 -
Martín Jiménez Audax Italiano Aktiv 98 / 94 40% 1 27.08.2027 -
Celías Ingenthron Racing Club Aktiv 106 / 116 40% 1 25.08.2027 -
Aiden Hezarkhani Real Salt Lake Aktiv 94 / 85 40% 1 25.08.2027 -
Axel Tape Bayer Leverkusen Aktiv 133 / 127 40% 1 23.08.2027 -
Elias Baum Eintracht Frankfurt Aktiv 130 / 128 40% 4 21.08.2027 -
Tyson Pearce St. Louis CITY SC Aktiv 86 / 105 40% 1 21.08.2027 -
Mattia Puzone Siracusa Aktiv 100 / 106 40% 2 19.08.2027 -
Christ Inao Oulaï Fiorentina Aktiv 144 / 148 40% 3 18.08.2027 -
Honest Ahanor Fiorentina Aktiv 136 / 144 40% 4 17.08.2027 -
Felipe Obradovich Rayo Vallecano Aktiv 113 / 116 40% 1 16.08.2027 -
Davide Bartesaghi AC Milan Aktiv 138 / 137 40% 2 15.08.2027 -
Alessio Insignito Spezia Aktiv 99 / 105 40% 1 13.08.2027 -
Eliás Montiel Athletic Bilbao Aktiv 131 / 144 40% 4 11.08.2027 -
Simone Kosijer Triestina Aktiv 100 / 113 40% 3 11.08.2027 -
Saeed Abdulrahman Al Shabab Aktiv 108 / 113 40% 1 11.08.2027 -
Kazunari Kita Real Sociedad Aktiv 102 / 109 40% 7 10.08.2027 -
Vadim Arutyunyan Dnepr Mogilev Aktiv 93 / 88 40% 1 10.08.2027 -
Josh King Chelsea Aktiv 138 / 150 40% 1 06.08.2027 -
Daniel Banjaqui Benfica Aktiv 115 / 136 40% 4 03.08.2027 -
Jenson Jones Peterborough United Aktiv 99 / 100 40% 2 01.08.2027 -
Juan Giménez Athletic Bilbao Aktiv 117 / 130 40% 4 30.07.2027 -
Finn Jeltsch VfB Stuttgart Aktiv 145 / 150 40% 1 30.07.2027 -
Dylan Lawlor Cardiff City Aktiv 122 / 125 40% 4 28.07.2027 -
Joe Knight Stevenage Aktiv 100 / 114 40% 4 28.07.2027 -
Facundo Balatti Penarol Aktiv 96 / 105 40% 3 25.07.2027 -
Juan David Arizala Udinese Aktiv 125 / 126 40% 2 24.07.2027 -
Matvey Kislyak CSKA Moscow Aktiv 142 / 141 40% 3 13.07.2027 -
Bahmed Deuff FC Metz Aktiv 119 / 128 40% 2 07.07.2027 -
Ismaël Baouf Cambuur Aktiv 115 / 119 40% 2 02.07.2027 -
Elie N'Gatta Sochaux Aktiv 98 / 105 40% 2 29.06.2027 -
Miguel Figueiredo Benfica Aktiv 113 / 127 40% 3 29.06.2027 -
Martim Cunha Porto Aktiv 102 / 102 40% 4 25.06.2027 -
Yaghoub Barage Persepolis Aktiv 112 / 114 40% 1 25.06.2027 -
Marius Courcoul Olympique de Marseille Aktiv 107 / 130 40% 1 20.02.2027 -
Victor Corona Santos Laguna Aktiv 106 / 97 40% 1 16.02.2027 -
Milad Mohammadi Padideh Aktiv 102 / 103 40% 1 16.02.2027 -
Moncef Zekri Sporting CP Aktiv 100 / 105 40% 1 15.02.2027 -
Saël Kumbedi VfL Wolfsburg Aktiv 128 / 128 40% 1 03.02.2027 -
Ivan Belikov Baltika Aktiv 92 / 112 72% 1 25.01.2027 Befürworten
Maxim Borisko CSKA Moscow Aktiv 127 / 125 40% 1 27.08.2026 -
Souza Tottenham Aktiv 123 / 130 40% 1 13.08.2026 -
Jozhua Vertrouwd Rayo Vallecano Aktiv 114 / 121 40% 1 13.08.2026 -
Julián Quiñones Al-Qadisiyah Aktiv 137 / 135 40% 1 12.08.2026 -
Cam Bragg Southampton Aktiv 105 / 118 40% 1 11.08.2026 -